sensor_id;sensor_type;location;lat;lon;timestamp;P1;durP1;ratioP1;P2;durP2;ratioP2
55015;SDS011;40919;43.236;21.590;2023-05-27T00:02:01;15.38;;;11.80;;
55015;SDS011;40919;43.236;21.590;2023-05-27T00:04:26;17.17;;;11.68;;
55015;SDS011;40919;43.236;21.590;2023-05-27T00:06:52;13.77;;;11.88;;
55015;SDS011;40919;43.236;21.590;2023-05-27T00:09:18;17.83;;;12.32;;
55015;SDS011;40919;43.236;21.590;2023-05-27T00:11:44;14.35;;;12.02;;
55015;SDS011;40919;43.236;21.590;2023-05-27T00:14:10;12.82;;;11.32;;
55015;SDS011;40919;43.236;21.590;2023-05-27T00:16:35;17.70;;;11.75;;
55015;SDS011;40919;43.236;21.590;2023-05-27T00:19:02;12.38;;;10.82;;
55015;SDS011;40919;43.236;21.590;2023-05-27T00:21:28;13.90;;;11.43;;
55015;SDS011;40919;43.236;21.590;2023-05-27T00:23:54;17.27;;;12.32;;
55015;SDS011;40919;43.236;21.590;2023-05-27T00:26:22;16.60;;;12.82;;
55015;SDS011;40919;43.236;21.590;2023-05-27T00:28:49;14.05;;;12.30;;
55015;SDS011;40919;43.236;21.590;2023-05-27T00:31:14;14.57;;;12.25;;
55015;SDS011;40919;43.236;21.590;2023-05-27T00:33:40;15.77;;;12.27;;
55015;SDS011;40919;43.236;21.590;2023-05-27T00:36:08;13.45;;;11.65;;
55015;SDS011;40919;43.236;21.590;2023-05-27T00:38:35;14.55;;;11.10;;
55015;SDS011;40919;43.236;21.590;2023-05-27T00:41:01;14.98;;;12.52;;
55015;SDS011;40919;43.236;21.590;2023-05-27T00:43:29;16.90;;;13.45;;
55015;SDS011;40919;43.236;21.590;2023-05-27T00:45:57;17.83;;;13.48;;
55015;SDS011;40919;43.236;21.590;2023-05-27T00:48:23;16.25;;;13.07;;
55015;SDS011;40919;43.236;21.590;2023-05-27T00:50:50;16.80;;;13.18;;
55015;SDS011;40919;43.236;21.590;2023-05-27T00:53:16;22.17;;;13.18;;
55015;SDS011;40919;43.236;21.590;2023-05-27T00:55:42;18.52;;;13.30;;
55015;SDS011;40919;43.236;21.590;2023-05-27T00:58:08;20.70;;;14.00;;
55015;SDS011;40919;43.236;21.590;2023-05-27T01:00:35;16.50;;;13.20;;
55015;SDS011;40919;43.236;21.590;2023-05-27T01:03:04;19.48;;;14.20;;
55015;SDS011;40919;43.236;21.590;2023-05-27T01:05:31;19.33;;;13.88;;
55015;SDS011;40919;43.236;21.590;2023-05-27T01:10:40;20.42;;;13.85;;
55015;SDS011;40919;43.236;21.590;2023-05-27T01:15:50;18.75;;;12.98;;
55015;SDS011;40919;43.236;21.590;2023-05-27T01:18:18;19.08;;;13.35;;
55015;SDS011;40919;43.236;21.590;2023-05-27T01:20:48;14.60;;;12.73;;
55015;SDS011;40919;43.236;21.590;2023-05-27T01:23:16;17.92;;;11.88;;
55015;SDS011;40919;43.236;21.590;2023-05-27T01:25:42;16.73;;;11.60;;
55015;SDS011;40919;43.236;21.590;2023-05-27T01:28:08;16.73;;;12.07;;
55015;SDS011;40919;43.236;21.590;2023-05-27T01:30:34;18.95;;;12.52;;
55015;SDS011;40919;43.236;21.590;2023-05-27T01:38:18;17.02;;;11.55;;
55015;SDS011;40919;43.236;21.590;2023-05-27T01:40:46;16.67;;;12.60;;
55015;SDS011;40919;43.236;21.590;2023-05-27T01:43:14;14.20;;;11.98;;
55015;SDS011;40919;43.236;21.590;2023-05-27T01:45:40;15.93;;;12.45;;
55015;SDS011;40919;43.236;21.590;2023-05-27T01:48:07;16.30;;;12.73;;
55015;SDS011;40919;43.236;21.590;2023-05-27T01:50:34;18.65;;;11.57;;
55015;SDS011;40919;43.236;21.590;2023-05-27T01:53:00;18.23;;;12.25;;
55015;SDS011;40919;43.236;21.590;2023-05-27T01:55:28;17.00;;;13.32;;
55015;SDS011;40919;43.236;21.590;2023-05-27T01:57:55;16.17;;;12.93;;
55015;SDS011;40919;43.236;21.590;2023-05-27T02:00:21;14.98;;;12.25;;
55015;SDS011;40919;43.236;21.590;2023-05-27T02:02:48;15.32;;;13.27;;
55015;SDS011;40919;43.236;21.590;2023-05-27T02:05:13;19.55;;;12.93;;
55015;SDS011;40919;43.236;21.590;2023-05-27T02:07:39;18.27;;;12.88;;
55015;SDS011;40919;43.236;21.590;2023-05-27T02:10:05;19.27;;;14.05;;
55015;SDS011;40919;43.236;21.590;2023-05-27T02:12:32;18.27;;;11.88;;
55015;SDS011;40919;43.236;21.590;2023-05-27T02:14:57;19.52;;;12.52;;
55015;SDS011;40919;43.236;21.590;2023-05-27T02:17:23;17.20;;;13.07;;
55015;SDS011;40919;43.236;21.590;2023-05-27T02:19:52;15.32;;;13.57;;
55015;SDS011;40919;43.236;21.590;2023-05-27T02:22:20;15.35;;;12.43;;
55015;SDS011;40919;43.236;21.590;2023-05-27T02:24:46;18.88;;;13.13;;
55015;SDS011;40919;43.236;21.590;2023-05-27T02:27:12;18.00;;;13.90;;
55015;SDS011;40919;43.236;21.590;2023-05-27T02:29:38;16.50;;;13.32;;
55015;SDS011;40919;43.236;21.590;2023-05-27T02:32:04;17.42;;;13.77;;
55015;SDS011;40919;43.236;21.590;2023-05-27T02:34:30;16.77;;;13.77;;
55015;SDS011;40919;43.236;21.590;2023-05-27T02:36:57;16.23;;;12.82;;
55015;SDS011;40919;43.236;21.590;2023-05-27T02:39:22;15.25;;;12.30;;
55015;SDS011;40919;43.236;21.590;2023-05-27T02:41:48;16.58;;;12.65;;
55015;SDS011;40919;43.236;21.590;2023-05-27T02:44:14;18.67;;;12.80;;
55015;SDS011;40919;43.236;21.590;2023-05-27T02:46:40;18.00;;;12.05;;
55015;SDS011;40919;43.236;21.590;2023-05-27T02:49:05;20.08;;;12.75;;
55015;SDS011;40919;43.236;21.590;2023-05-27T02:51:31;16.83;;;11.32;;
55015;SDS011;40919;43.236;21.590;2023-05-27T02:53:57;17.30;;;12.60;;
55015;SDS011;40919;43.236;21.590;2023-05-27T02:56:23;15.70;;;12.40;;
55015;SDS011;40919;43.236;21.590;2023-05-27T02:58:50;16.88;;;12.07;;
55015;SDS011;40919;43.236;21.590;2023-05-27T03:01:16;16.65;;;11.18;;
55015;SDS011;40919;43.236;21.590;2023-05-27T03:03:42;15.38;;;11.27;;
55015;SDS011;40919;43.236;21.590;2023-05-27T03:06:23;16.70;;;11.48;;
55015;SDS011;40919;43.236;21.590;2023-05-27T03:08:49;16.27;;;12.82;;
55015;SDS011;40919;43.236;21.590;2023-05-27T03:11:15;16.08;;;10.50;;
55015;SDS011;40919;43.236;21.590;2023-05-27T03:13:41;21.08;;;13.18;;
55015;SDS011;40919;43.236;21.590;2023-05-27T03:16:06;18.10;;;13.02;;
55015;SDS011;40919;43.236;21.590;2023-05-27T03:18:32;13.70;;;11.88;;
55015;SDS011;40919;43.236;21.590;2023-05-27T03:20:58;15.43;;;12.38;;
55015;SDS011;40919;43.236;21.590;2023-05-27T03:23:24;16.92;;;11.88;;
55015;SDS011;40919;43.236;21.590;2023-05-27T03:25:49;18.27;;;13.00;;
55015;SDS011;40919;43.236;21.590;2023-05-27T03:28:15;20.92;;;15.48;;
55015;SDS011;40919;43.236;21.590;2023-05-27T03:30:41;24.00;;;15.85;;
55015;SDS011;40919;43.236;21.590;2023-05-27T03:33:08;25.05;;;18.40;;
55015;SDS011;40919;43.236;21.590;2023-05-27T03:35:34;27.38;;;18.70;;
55015;SDS011;40919;43.236;21.590;2023-05-27T03:38:00;25.90;;;17.42;;
55015;SDS011;40919;43.236;21.590;2023-05-27T03:40:26;25.27;;;18.00;;
55015;SDS011;40919;43.236;21.590;2023-05-27T03:42:52;22.88;;;16.10;;
55015;SDS011;40919;43.236;21.590;2023-05-27T03:45:18;25.60;;;16.95;;
55015;SDS011;40919;43.236;21.590;2023-05-27T03:47:44;25.85;;;17.02;;
55015;SDS011;40919;43.236;21.590;2023-05-27T03:50:10;26.42;;;16.08;;
55015;SDS011;40919;43.236;21.590;2023-05-27T03:52:36;20.20;;;15.10;;
55015;SDS011;40919;43.236;21.590;2023-05-27T03:55:02;25.20;;;16.58;;
55015;SDS011;40919;43.236;21.590;2023-05-27T03:57:28;20.92;;;15.68;;
55015;SDS011;40919;43.236;21.590;2023-05-27T03:59:53;21.00;;;15.27;;
55015;SDS011;40919;43.236;21.590;2023-05-27T04:02:19;18.15;;;13.85;;
55015;SDS011;40919;43.236;21.590;2023-05-27T04:04:45;24.08;;;15.52;;
55015;SDS011;40919;43.236;21.590;2023-05-27T04:07:11;22.52;;;15.63;;
55015;SDS011;40919;43.236;21.590;2023-05-27T04:09:38;22.77;;;15.57;;
55015;SDS011;40919;43.236;21.590;2023-05-27T04:12:04;21.77;;;15.88;;
55015;SDS011;40919;43.236;21.590;2023-05-27T04:14:31;23.35;;;15.38;;
55015;SDS011;40919;43.236;21.590;2023-05-27T04:16:57;24.70;;;16.00;;
55015;SDS011;40919;43.236;21.590;2023-05-27T04:19:23;24.02;;;16.88;;
55015;SDS011;40919;43.236;21.590;2023-05-27T04:21:48;23.52;;;17.20;;
55015;SDS011;40919;43.236;21.590;2023-05-27T04:24:14;23.50;;;16.90;;
55015;SDS011;40919;43.236;21.590;2023-05-27T04:26:40;25.23;;;18.08;;
55015;SDS011;40919;43.236;21.590;2023-05-27T04:29:06;29.73;;;19.48;;
55015;SDS011;40919;43.236;21.590;2023-05-27T04:31:34;22.15;;;16.77;;
55015;SDS011;40919;43.236;21.590;2023-05-27T04:34:01;27.45;;;18.55;;
55015;SDS011;40919;43.236;21.590;2023-05-27T04:36:27;25.73;;;17.70;;
55015;SDS011;40919;43.236;21.590;2023-05-27T04:38:58;28.17;;;17.67;;
55015;SDS011;40919;43.236;21.590;2023-05-27T04:41:26;25.95;;;18.13;;
55015;SDS011;40919;43.236;21.590;2023-05-27T04:43:53;19.45;;;16.33;;
55015;SDS011;40919;43.236;21.590;2023-05-27T04:46:23;23.02;;;17.38;;
55015;SDS011;40919;43.236;21.590;2023-05-27T04:48:50;26.90;;;16.88;;
55015;SDS011;40919;43.236;21.590;2023-05-27T04:51:18;21.27;;;14.38;;
55015;SDS011;40919;43.236;21.590;2023-05-27T04:53:44;21.00;;;16.15;;
55015;SDS011;40919;43.236;21.590;2023-05-27T04:56:13;21.98;;;16.98;;
55015;SDS011;40919;43.236;21.590;2023-05-27T04:58:40;19.40;;;16.00;;
55015;SDS011;40919;43.236;21.590;2023-05-27T05:01:08;24.33;;;16.98;;
55015;SDS011;40919;43.236;21.590;2023-05-27T05:03:42;21.88;;;16.00;;
55015;SDS011;40919;43.236;21.590;2023-05-27T05:06:18;22.23;;;15.95;;
55015;SDS011;40919;43.236;21.590;2023-05-27T05:08:44;20.60;;;16.25;;
55015;SDS011;40919;43.236;21.590;2023-05-27T05:11:10;25.00;;;18.05;;
55015;SDS011;40919;43.236;21.590;2023-05-27T05:13:36;22.35;;;17.00;;
55015;SDS011;40919;43.236;21.590;2023-05-27T05:16:02;23.30;;;17.25;;
55015;SDS011;40919;43.236;21.590;2023-05-27T05:18:27;23.92;;;17.92;;
55015;SDS011;40919;43.236;21.590;2023-05-27T05:20:54;23.95;;;16.02;;
55015;SDS011;40919;43.236;21.590;2023-05-27T05:23:19;28.35;;;17.85;;
55015;SDS011;40919;43.236;21.590;2023-05-27T05:25:45;22.65;;;17.45;;
55015;SDS011;40919;43.236;21.590;2023-05-27T05:28:12;24.73;;;17.90;;
55015;SDS011;40919;43.236;21.590;2023-05-27T05:30:37;22.65;;;16.45;;
55015;SDS011;40919;43.236;21.590;2023-05-27T05:33:04;27.38;;;17.95;;
55015;SDS011;40919;43.236;21.590;2023-05-27T05:35:30;22.10;;;16.25;;
55015;SDS011;40919;43.236;21.590;2023-05-27T05:37:56;22.75;;;16.58;;
55015;SDS011;40919;43.236;21.590;2023-05-27T05:40:22;22.70;;;16.85;;
55015;SDS011;40919;43.236;21.590;2023-05-27T05:42:48;22.60;;;17.48;;
55015;SDS011;40919;43.236;21.590;2023-05-27T05:45:14;20.25;;;15.98;;
55015;SDS011;40919;43.236;21.590;2023-05-27T05:47:40;21.48;;;15.82;;
55015;SDS011;40919;43.236;21.590;2023-05-27T05:50:05;24.85;;;15.93;;
55015;SDS011;40919;43.236;21.590;2023-05-27T05:52:32;22.13;;;15.95;;
55015;SDS011;40919;43.236;21.590;2023-05-27T05:54:57;20.52;;;14.85;;
55015;SDS011;40919;43.236;21.590;2023-05-27T05:57:23;19.15;;;14.80;;
55015;SDS011;40919;43.236;21.590;2023-05-27T05:59:49;21.13;;;15.05;;
55015;SDS011;40919;43.236;21.590;2023-05-27T06:02:15;18.85;;;14.57;;
55015;SDS011;40919;43.236;21.590;2023-05-27T06:04:41;15.98;;;13.13;;
55015;SDS011;40919;43.236;21.590;2023-05-27T06:07:07;14.98;;;13.07;;
55015;SDS011;40919;43.236;21.590;2023-05-27T06:09:32;18.67;;;13.43;;
55015;SDS011;40919;43.236;21.590;2023-05-27T06:11:58;16.98;;;13.05;;
55015;SDS011;40919;43.236;21.590;2023-05-27T06:14:24;14.93;;;12.68;;
55015;SDS011;40919;43.236;21.590;2023-05-27T06:16:50;15.95;;;13.20;;
55015;SDS011;40919;43.236;21.590;2023-05-27T06:19:15;16.75;;;14.95;;
55015;SDS011;40919;43.236;21.590;2023-05-27T06:21:41;12.93;;;9.75;;
55015;SDS011;40919;43.236;21.590;2023-05-27T06:24:07;12.40;;;9.43;;
55015;SDS011;40919;43.236;21.590;2023-05-27T06:26:33;12.02;;;9.95;;
55015;SDS011;40919;43.236;21.590;2023-05-27T06:28:59;11.75;;;8.82;;
55015;SDS011;40919;43.236;21.590;2023-05-27T06:31:24;12.05;;;9.23;;
55015;SDS011;40919;43.236;21.590;2023-05-27T06:33:52;12.18;;;9.40;;
55015;SDS011;40919;43.236;21.590;2023-05-27T06:36:18;10.80;;;9.35;;
55015;SDS011;40919;43.236;21.590;2023-05-27T06:38:44;12.13;;;9.45;;
55015;SDS011;40919;43.236;21.590;2023-05-27T06:41:09;10.75;;;8.70;;
55015;SDS011;40919;43.236;21.590;2023-05-27T06:43:35;14.77;;;10.25;;
55015;SDS011;40919;43.236;21.590;2023-05-27T06:46:01;10.23;;;8.77;;
55015;SDS011;40919;43.236;21.590;2023-05-27T06:48:27;11.43;;;8.57;;
55015;SDS011;40919;43.236;21.590;2023-05-27T06:50:53;13.25;;;8.65;;
55015;SDS011;40919;43.236;21.590;2023-05-27T06:53:19;10.55;;;9.05;;
55015;SDS011;40919;43.236;21.590;2023-05-27T06:55:45;10.70;;;9.10;;
55015;SDS011;40919;43.236;21.590;2023-05-27T06:58:11;12.25;;;9.05;;
55015;SDS011;40919;43.236;21.590;2023-05-27T07:00:36;12.40;;;10.13;;
55015;SDS011;40919;43.236;21.590;2023-05-27T07:03:02;12.20;;;9.77;;
55015;SDS011;40919;43.236;21.590;2023-05-27T07:05:28;12.25;;;8.93;;
55015;SDS011;40919;43.236;21.590;2023-05-27T07:07:54;13.48;;;11.40;;
55015;SDS011;40919;43.236;21.590;2023-05-27T07:10:20;11.85;;;10.15;;
55015;SDS011;40919;43.236;21.590;2023-05-27T07:12:45;13.40;;;10.52;;
55015;SDS011;40919;43.236;21.590;2023-05-27T07:15:11;10.38;;;9.30;;
55015;SDS011;40919;43.236;21.590;2023-05-27T07:17:37;11.68;;;10.02;;
55015;SDS011;40919;43.236;21.590;2023-05-27T07:20:04;11.48;;;8.40;;
55015;SDS011;40919;43.236;21.590;2023-05-27T07:22:30;11.32;;;10.13;;
55015;SDS011;40919;43.236;21.590;2023-05-27T07:24:55;12.25;;;9.25;;
55015;SDS011;40919;43.236;21.590;2023-05-27T07:27:22;12.70;;;9.77;;
55015;SDS011;40919;43.236;21.590;2023-05-27T07:29:48;12.18;;;10.20;;
55015;SDS011;40919;43.236;21.590;2023-05-27T07:32:13;12.32;;;11.00;;
55015;SDS011;40919;43.236;21.590;2023-05-27T07:34:39;14.27;;;10.32;;
55015;SDS011;40919;43.236;21.590;2023-05-27T07:37:05;14.10;;;10.93;;
55015;SDS011;40919;43.236;21.590;2023-05-27T07:39:31;12.48;;;10.05;;
55015;SDS011;40919;43.236;21.590;2023-05-27T07:41:57;11.98;;;10.75;;
55015;SDS011;40919;43.236;21.590;2023-05-27T07:44:22;11.98;;;9.43;;
55015;SDS011;40919;43.236;21.590;2023-05-27T07:46:48;11.25;;;9.90;;
55015;SDS011;40919;43.236;21.590;2023-05-27T07:49:14;10.70;;;9.60;;
55015;SDS011;40919;43.236;21.590;2023-05-27T07:51:40;11.88;;;10.52;;
55015;SDS011;40919;43.236;21.590;2023-05-27T07:54:06;11.20;;;9.85;;
55015;SDS011;40919;43.236;21.590;2023-05-27T07:56:32;11.52;;;10.15;;
55015;SDS011;40919;43.236;21.590;2023-05-27T07:58:59;14.48;;;11.00;;
55015;SDS011;40919;43.236;21.590;2023-05-27T08:01:25;12.82;;;10.45;;
55015;SDS011;40919;43.236;21.590;2023-05-27T08:03:55;13.30;;;9.90;;
55015;SDS011;40919;43.236;21.590;2023-05-27T08:06:21;12.77;;;10.73;;
55015;SDS011;40919;43.236;21.590;2023-05-27T08:08:47;12.07;;;10.90;;
55015;SDS011;40919;43.236;21.590;2023-05-27T08:11:13;12.70;;;10.63;;
55015;SDS011;40919;43.236;21.590;2023-05-27T08:13:39;12.43;;;10.90;;
55015;SDS011;40919;43.236;21.590;2023-05-27T08:16:04;13.00;;;10.65;;
55015;SDS011;40919;43.236;21.590;2023-05-27T08:18:31;12.38;;;11.07;;
55015;SDS011;40919;43.236;21.590;2023-05-27T08:20:57;12.23;;;10.75;;
55015;SDS011;40919;43.236;21.590;2023-05-27T08:23:23;14.15;;;10.88;;
55015;SDS011;40919;43.236;21.590;2023-05-27T08:25:50;12.00;;;10.80;;
55015;SDS011;40919;43.236;21.590;2023-05-27T08:28:16;12.65;;;10.93;;
55015;SDS011;40919;43.236;21.590;2023-05-27T08:30:41;12.82;;;10.70;;
55015;SDS011;40919;43.236;21.590;2023-05-27T08:33:07;14.07;;;12.15;;
55015;SDS011;40919;43.236;21.590;2023-05-27T08:35:33;18.02;;;11.55;;
55015;SDS011;40919;43.236;21.590;2023-05-27T08:37:59;14.38;;;11.68;;
55015;SDS011;40919;43.236;21.590;2023-05-27T08:40:25;16.83;;;12.00;;
55015;SDS011;40919;43.236;21.590;2023-05-27T08:42:51;15.57;;;13.40;;
55015;SDS011;40919;43.236;21.590;2023-05-27T08:45:17;14.70;;;12.88;;
55015;SDS011;40919;43.236;21.590;2023-05-27T08:47:43;15.52;;;12.88;;
55015;SDS011;40919;43.236;21.590;2023-05-27T08:50:09;17.20;;;13.18;;
55015;SDS011;40919;43.236;21.590;2023-05-27T08:52:42;23.42;;;12.88;;
55015;SDS011;40919;43.236;21.590;2023-05-27T08:55:13;15.35;;;13.43;;
55015;SDS011;40919;43.236;21.590;2023-05-27T08:57:44;18.90;;;14.00;;
55015;SDS011;40919;43.236;21.590;2023-05-27T09:00:14;16.08;;;12.95;;
55015;SDS011;40919;43.236;21.590;2023-05-27T09:02:40;15.35;;;13.40;;
55015;SDS011;40919;43.236;21.590;2023-05-27T09:05:07;19.80;;;14.25;;
55015;SDS011;40919;43.236;21.590;2023-05-27T09:07:35;15.07;;;13.50;;
55015;SDS011;40919;43.236;21.590;2023-05-27T09:10:01;17.20;;;13.88;;
55015;SDS011;40919;43.236;21.590;2023-05-27T09:12:27;15.48;;;12.25;;
55015;SDS011;40919;43.236;21.590;2023-05-27T09:14:53;15.77;;;13.80;;
55015;SDS011;40919;43.236;21.590;2023-05-27T09:17:21;13.93;;;12.25;;
55015;SDS011;40919;43.236;21.590;2023-05-27T09:19:52;16.77;;;14.98;;
55015;SDS011;40919;43.236;21.590;2023-05-27T09:22:22;13.02;;;11.63;;
55015;SDS011;40919;43.236;21.590;2023-05-27T09:24:55;14.18;;;11.73;;
55015;SDS011;40919;43.236;21.590;2023-05-27T09:27:25;16.35;;;11.77;;
55015;SDS011;40919;43.236;21.590;2023-05-27T09:29:58;13.70;;;11.38;;
55015;SDS011;40919;43.236;21.590;2023-05-27T09:32:34;12.82;;;10.95;;
55015;SDS011;40919;43.236;21.590;2023-05-27T09:35:00;11.80;;;10.13;;
55015;SDS011;40919;43.236;21.590;2023-05-27T09:40:09;12.93;;;10.30;;
55015;SDS011;40919;43.236;21.590;2023-05-27T09:42:47;11.50;;;10.30;;
55015;SDS011;40919;43.236;21.590;2023-05-27T09:45:17;12.77;;;10.43;;
55015;SDS011;40919;43.236;21.590;2023-05-27T09:47:50;11.63;;;10.43;;
55015;SDS011;40919;43.236;21.590;2023-05-27T09:50:17;13.65;;;10.95;;
55015;SDS011;40919;43.236;21.590;2023-05-27T09:52:45;11.88;;;10.60;;
55015;SDS011;40919;43.236;21.590;2023-05-27T09:55:15;11.27;;;10.15;;
55015;SDS011;40919;43.236;21.590;2023-05-27T09:57:43;11.23;;;9.43;;
55015;SDS011;40919;43.236;21.590;2023-05-27T10:00:10;13.68;;;10.77;;
55015;SDS011;40919;43.236;21.590;2023-05-27T10:02:41;13.90;;;11.10;;
55015;SDS011;40919;43.236;21.590;2023-05-27T10:05:08;12.10;;;10.25;;
55015;SDS011;40919;43.236;21.590;2023-05-27T10:07:37;11.48;;;10.20;;
55015;SDS011;40919;43.236;21.590;2023-05-27T10:10:06;10.93;;;9.82;;
55015;SDS011;40919;43.236;21.590;2023-05-27T10:12:38;13.90;;;10.63;;
55015;SDS011;40919;43.236;21.590;2023-05-27T10:15:05;13.88;;;10.88;;
55015;SDS011;40919;43.236;21.590;2023-05-27T10:20:07;11.65;;;10.35;;
55015;SDS011;40919;43.236;21.590;2023-05-27T10:22:46;11.82;;;9.48;;
55015;SDS011;40919;43.236;21.590;2023-05-27T10:25:12;14.15;;;11.20;;
55015;SDS011;40919;43.236;21.590;2023-05-27T10:27:45;12.52;;;11.23;;
55015;SDS011;40919;43.236;21.590;2023-05-27T10:30:12;13.63;;;9.73;;
55015;SDS011;40919;43.236;21.590;2023-05-27T10:32:48;16.42;;;11.23;;
55015;SDS011;40919;43.236;21.590;2023-05-27T10:35:18;13.52;;;9.93;;
55015;SDS011;40919;43.236;21.590;2023-05-27T10:37:44;10.75;;;9.65;;
55015;SDS011;40919;43.236;21.590;2023-05-27T10:40:11;13.30;;;11.23;;
55015;SDS011;40919;43.236;21.590;2023-05-27T10:42:37;12.63;;;9.05;;
55015;SDS011;40919;43.236;21.590;2023-05-27T10:45:08;10.77;;;9.55;;
55015;SDS011;40919;43.236;21.590;2023-05-27T10:47:36;10.57;;;9.05;;
55015;SDS011;40919;43.236;21.590;2023-05-27T10:50:14;11.15;;;8.88;;
55015;SDS011;40919;43.236;21.590;2023-05-27T10:52:41;13.75;;;10.07;;
55015;SDS011;40919;43.236;21.590;2023-05-27T10:55:07;10.70;;;9.52;;
55015;SDS011;40919;43.236;21.590;2023-05-27T10:57:33;12.32;;;10.30;;
55015;SDS011;40919;43.236;21.590;2023-05-27T11:00:04;11.55;;;10.35;;
55015;SDS011;40919;43.236;21.590;2023-05-27T11:02:34;11.50;;;9.48;;
55015;SDS011;40919;43.236;21.590;2023-05-27T11:05:13;13.15;;;11.70;;
55015;SDS011;40919;43.236;21.590;2023-05-27T11:07:39;12.63;;;10.13;;
55015;SDS011;40919;43.236;21.590;2023-05-27T11:10:06;12.23;;;10.93;;
55015;SDS011;40919;43.236;21.590;2023-05-27T11:12:33;10.82;;;9.73;;
55015;SDS011;40919;43.236;21.590;2023-05-27T11:14:59;13.07;;;10.20;;
55015;SDS011;40919;43.236;21.590;2023-05-27T11:17:25;13.40;;;10.93;;
55015;SDS011;40919;43.236;21.590;2023-05-27T11:19:50;11.23;;;9.68;;
55015;SDS011;40919;43.236;21.590;2023-05-27T11:22:17;11.55;;;9.98;;
55015;SDS011;40919;43.236;21.590;2023-05-27T11:25:05;12.90;;;11.07;;
55015;SDS011;40919;43.236;21.590;2023-05-27T11:27:38;10.93;;;9.63;;
55015;SDS011;40919;43.236;21.590;2023-05-27T11:30:08;12.88;;;10.70;;
55015;SDS011;40919;43.236;21.590;2023-05-27T11:32:35;15.65;;;13.35;;
55015;SDS011;40919;43.236;21.590;2023-05-27T11:35:01;12.73;;;10.95;;
55015;SDS011;40919;43.236;21.590;2023-05-27T11:37:36;13.35;;;11.95;;
55015;SDS011;40919;43.236;21.590;2023-05-27T11:40:02;12.05;;;10.73;;
55015;SDS011;40919;43.236;21.590;2023-05-27T11:42:36;13.05;;;11.32;;
55015;SDS011;40919;43.236;21.590;2023-05-27T11:45:02;14.45;;;11.70;;
55015;SDS011;40919;43.236;21.590;2023-05-27T11:47:31;14.20;;;12.25;;
55015;SDS011;40919;43.236;21.590;2023-05-27T11:49:57;15.82;;;12.77;;
55015;SDS011;40919;43.236;21.590;2023-05-27T11:52:26;14.20;;;12.70;;
55015;SDS011;40919;43.236;21.590;2023-05-27T11:54:52;15.30;;;13.63;;
55015;SDS011;40919;43.236;21.590;2023-05-27T11:57:18;15.88;;;14.13;;
55015;SDS011;40919;43.236;21.590;2023-05-27T11:59:43;17.48;;;14.90;;
55015;SDS011;40919;43.236;21.590;2023-05-27T12:02:09;17.40;;;14.55;;
55015;SDS011;40919;43.236;21.590;2023-05-27T12:04:35;17.05;;;15.45;;
55015;SDS011;40919;43.236;21.590;2023-05-27T12:07:01;19.55;;;14.52;;
55015;SDS011;40919;43.236;21.590;2023-05-27T12:09:27;18.08;;;15.82;;
55015;SDS011;40919;43.236;21.590;2023-05-27T12:11:53;18.52;;;15.48;;
55015;SDS011;40919;43.236;21.590;2023-05-27T12:14:20;17.55;;;15.07;;
55015;SDS011;40919;43.236;21.590;2023-05-27T12:16:47;19.08;;;15.30;;
55015;SDS011;40919;43.236;21.590;2023-05-27T12:19:13;16.92;;;14.50;;
55015;SDS011;40919;43.236;21.590;2023-05-27T12:21:39;19.10;;;14.57;;
55015;SDS011;40919;43.236;21.590;2023-05-27T12:24:05;18.95;;;17.02;;
55015;SDS011;40919;43.236;21.590;2023-05-27T12:26:31;18.02;;;15.10;;
55015;SDS011;40919;43.236;21.590;2023-05-27T12:28:57;19.25;;;15.35;;
55015;SDS011;40919;43.236;21.590;2023-05-27T12:31:23;16.52;;;14.82;;
55015;SDS011;40919;43.236;21.590;2023-05-27T12:33:49;20.20;;;16.05;;
55015;SDS011;40919;43.236;21.590;2023-05-27T12:36:15;15.63;;;13.98;;
55015;SDS011;40919;43.236;21.590;2023-05-27T12:38:41;17.45;;;15.60;;
55015;SDS011;40919;43.236;21.590;2023-05-27T12:41:07;18.30;;;15.40;;
55015;SDS011;40919;43.236;21.590;2023-05-27T12:43:33;17.80;;;15.90;;
55015;SDS011;40919;43.236;21.590;2023-05-27T12:45:59;19.70;;;16.48;;
55015;SDS011;40919;43.236;21.590;2023-05-27T12:48:25;25.50;;;18.52;;
55015;SDS011;40919;43.236;21.590;2023-05-27T12:50:50;19.65;;;17.25;;
55015;SDS011;40919;43.236;21.590;2023-05-27T12:53:16;18.85;;;15.82;;
55015;SDS011;40919;43.236;21.590;2023-05-27T12:55:43;18.13;;;15.48;;
55015;SDS011;40919;43.236;21.590;2023-05-27T12:58:11;15.98;;;14.30;;
55015;SDS011;40919;43.236;21.590;2023-05-27T13:00:37;15.20;;;13.70;;
55015;SDS011;40919;43.236;21.590;2023-05-27T13:03:03;17.50;;;13.18;;
55015;SDS011;40919;43.236;21.590;2023-05-27T13:05:29;16.52;;;14.20;;
55015;SDS011;40919;43.236;21.590;2023-05-27T13:07:57;19.05;;;16.60;;
55015;SDS011;40919;43.236;21.590;2023-05-27T13:10:25;20.42;;;16.90;;
55015;SDS011;40919;43.236;21.590;2023-05-27T13:12:51;20.00;;;17.33;;
55015;SDS011;40919;43.236;21.590;2023-05-27T13:15:17;17.88;;;14.95;;
55015;SDS011;40919;43.236;21.590;2023-05-27T13:17:44;20.13;;;17.52;;
55015;SDS011;40919;43.236;21.590;2023-05-27T13:20:13;21.15;;;18.15;;
55015;SDS011;40919;43.236;21.590;2023-05-27T13:22:39;20.60;;;17.52;;
55015;SDS011;40919;43.236;21.590;2023-05-27T13:25:07;22.02;;;18.70;;
55015;SDS011;40919;43.236;21.590;2023-05-27T13:27:33;22.35;;;19.45;;
55015;SDS011;40919;43.236;21.590;2023-05-27T13:29:59;21.40;;;19.08;;
55015;SDS011;40919;43.236;21.590;2023-05-27T13:32:24;22.85;;;20.10;;
55015;SDS011;40919;43.236;21.590;2023-05-27T13:34:51;20.63;;;18.50;;
55015;SDS011;40919;43.236;21.590;2023-05-27T13:37:17;24.05;;;21.05;;
55015;SDS011;40919;43.236;21.590;2023-05-27T13:39:43;25.20;;;22.58;;
55015;SDS011;40919;43.236;21.590;2023-05-27T13:42:09;23.33;;;20.83;;
55015;SDS011;40919;43.236;21.590;2023-05-27T13:44:35;23.05;;;19.95;;
55015;SDS011;40919;43.236;21.590;2023-05-27T13:47:01;20.95;;;18.67;;
55015;SDS011;40919;43.236;21.590;2023-05-27T13:49:27;23.08;;;20.65;;
55015;SDS011;40919;43.236;21.590;2023-05-27T13:51:53;19.90;;;17.90;;
55015;SDS011;40919;43.236;21.590;2023-05-27T13:54:19;29.00;;;22.85;;
55015;SDS011;40919;43.236;21.590;2023-05-27T13:56:45;72.85;;;24.25;;
55015;SDS011;40919;43.236;21.590;2023-05-27T13:59:11;40.92;;;22.20;;
55015;SDS011;40919;43.236;21.590;2023-05-27T14:01:37;48.03;;;21.33;;
55015;SDS011;40919;43.236;21.590;2023-05-27T14:04:04;24.10;;;19.52;;
55015;SDS011;40919;43.236;21.590;2023-05-27T14:06:30;38.85;;;28.58;;
55015;SDS011;40919;43.236;21.590;2023-05-27T14:08:56;28.02;;;23.60;;
55015;SDS011;40919;43.236;21.590;2023-05-27T14:11:22;26.48;;;22.55;;
55015;SDS011;40919;43.236;21.590;2023-05-27T14:13:49;26.38;;;22.05;;
55015;SDS011;40919;43.236;21.590;2023-05-27T14:16:15;23.13;;;20.70;;
55015;SDS011;40919;43.236;21.590;2023-05-27T14:18:41;20.17;;;18.02;;
55015;SDS011;40919;43.236;21.590;2023-05-27T14:21:08;25.05;;;21.17;;
55015;SDS011;40919;43.236;21.590;2023-05-27T14:23:34;20.90;;;18.70;;
55015;SDS011;40919;43.236;21.590;2023-05-27T14:26:00;26.08;;;21.83;;